Time;durP1;ratioP1;P1;durP2;ratioP2;P2;SDS_P1;SDS_P2;PMS_P1;PMS_P2;Temp;Humidity;BMP_temperature;BMP_pressure;BME280_temperature;BME280_humidity;BME280_pressure;Samples;Min_cycle;Max_cycle;Signal;HPM_P1;HPM_P2
2022/03/09 00:00:03;;;;;;;11.85;7.25;;;2.00;54.70;;;;;;4984102;28;20650;-79
2022/03/09 04:48:45;;;;;;;16.55;7.60;;;-0.30;78.10;;;;;;5963082;23;20222;-73
2022/03/09 04:51:12;;;;;;;14.60;8.25;;;-0.30;78.30;;;;;;4949430;29;20134;-76
2022/03/09 04:53:39;;;;;;;16.58;8.90;;;-0.40;78.00;;;;;;4956603;29;20145;-75
2022/03/09 04:56:06;;;;;;;16.70;9.02;;;-0.40;77.80;;;;;;4961601;29;20138;-77
2022/03/09 04:58:34;;;;;;;17.70;9.00;;;-0.40;78.10;;;;;;4963004;29;20111;-78
2022/03/09 05:01:03;;;;;;;15.93;8.63;;;-0.40;78.30;;;;;;4966610;29;20043;-75
2022/03/09 05:03:30;;;;;;;14.70;7.97;;;-0.40;78.60;;;;;;4966774;29;20419;-76
2022/03/09 05:05:59;;;;;;;14.70;7.68;;;-0.40;79.00;;;;;;4962321;29;20047;-78
2022/03/09 05:08:26;;;;;;;14.23;7.97;;;-0.40;79.20;;;;;;4960122;29;20048;-75
2022/03/09 05:10:53;;;;;;;17.67;8.45;;;-0.40;79.50;;;;;;4960378;29;20051;-75
2022/03/09 05:13:20;;;;;;;16.30;8.73;;;-0.50;79.70;;;;;;4960984;29;20496;-80
2022/03/09 05:15:47;;;;;;;15.27;7.55;;;-0.60;80.10;;;;;;4961937;29;20043;-78
2022/03/09 05:18:14;;;;;;;14.02;7.60;;;-0.60;80.90;;;;;;4961319;29;20492;-76
2022/03/09 05:20:42;;;;;;;14.68;8.25;;;-0.70;81.40;;;;;;4961010;29;20132;-75
2022/03/09 05:23:10;;;;;;;14.70;7.90;;;-0.70;82.40;;;;;;4959707;29;20465;-78
2022/03/09 05:25:37;;;;;;;14.32;7.63;;;-0.70;83.00;;;;;;4961267;29;20047;-75
2022/03/09 05:28:05;;;;;;;16.33;8.17;;;-0.70;83.20;;;;;;4960234;29;20058;-75
2022/03/09 05:30:32;;;;;;;18.10;9.33;;;-0.70;83.40;;;;;;4959427;29;20083;-76
2022/03/09 05:32:59;;;;;;;16.98;8.55;;;-0.70;83.70;;;;;;4960429;29;20047;-75
2022/03/09 05:35:26;;;;;;;14.97;7.47;;;-0.70;83.60;;;;;;4961094;29;20122;-78
2022/03/09 05:37:53;;;;;;;15.60;7.57;;;-0.80;83.80;;;;;;4961551;29;20142;-75
2022/03/09 05:40:22;;;;;;;15.70;8.10;;;-0.80;84.20;;;;;;4959795;29;20051;-75
2022/03/09 05:42:49;;;;;;;15.63;7.85;;;-0.80;84.50;;;;;;4960752;29;20138;-75
2022/03/09 05:45:16;;;;;;;15.05;8.23;;;-0.80;84.70;;;;;;4960683;29;20047;-74
2022/03/09 05:47:43;;;;;;;14.18;8.00;;;-0.90;84.70;;;;;;4960341;28;20051;-75
2022/03/09 05:50:10;;;;;;;15.77;8.27;;;-0.90;84.60;;;;;;4960807;29;20055;-75
2022/03/09 05:52:37;;;;;;;16.33;8.35;;;-0.90;85.00;;;;;;4959581;29;20135;-75
2022/03/09 05:55:06;;;;;;;16.70;8.35;;;-0.90;85.50;;;;;;4959323;29;20051;-75
2022/03/09 05:57:34;;;;;;;14.00;8.03;;;-1.00;85.90;;;;;;4959496;29;20134;-75
2022/03/09 06:00:03;;;;;;;14.63;7.83;;;-1.00;86.20;;;;;;4958887;29;20078;-75
2022/03/09 06:02:30;;;;;;;14.77;8.17;;;-1.00;86.00;;;;;;4940893;29;20481;-76
2022/03/09 06:04:57;;;;;;;15.37;7.77;;;-1.00;86.40;;;;;;4941566;29;20416;-75
2022/03/09 06:07:24;;;;;;;16.45;7.70;;;-1.10;86.70;;;;;;4941730;29;20054;-74
2022/03/09 06:09:51;;;;;;;15.23;8.27;;;-1.10;87.30;;;;;;4940341;29;20052;-75
2022/03/09 06:12:18;;;;;;;17.08;8.43;;;-1.10;87.10;;;;;;4940381;29;20047;-76
2022/03/09 06:14:46;;;;;;;16.17;8.87;;;-1.10;87.40;;;;;;4938462;29;20555;-75
2022/03/09 06:17:13;;;;;;;16.93;8.53;;;-1.20;87.50;;;;;;4939822;29;20142;-75
2022/03/09 06:19:41;;;;;;;18.23;8.80;;;-1.20;87.80;;;;;;4938679;29;20146;-74
2022/03/09 06:22:08;;;;;;;17.00;8.93;;;-1.30;88.40;;;;;;4938577;29;20055;-75
2022/03/09 06:24:35;;;;;;;19.00;9.30;;;-1.40;89.20;;;;;;4938756;29;20101;-75
2022/03/09 06:27:02;;;;;;;15.67;8.57;;;-1.40;90.20;;;;;;4938868;29;20123;-75
2022/03/09 06:29:29;;;;;;;16.83;8.23;;;-1.40;90.20;;;;;;4939618;29;20048;-75
2022/03/09 06:31:57;;;;;;;17.20;8.40;;;-1.30;90.30;;;;;;4938936;29;20047;-76
2022/03/09 06:34:24;;;;;;;17.95;8.82;;;-1.30;90.40;;;;;;4938133;29;20499;-76
2022/03/09 06:36:51;;;;;;;18.00;9.30;;;-1.20;90.50;;;;;;4938268;29;20080;-75
2022/03/09 06:39:20;;;;;;;18.90;9.50;;;-1.20;90.50;;;;;;4938935;29;20051;-76
2022/03/09 06:41:48;;;;;;;17.23;8.50;;;-1.20;90.50;;;;;;4938371;29;20481;-76
2022/03/09 06:44:17;;;;;;;18.85;9.73;;;-1.10;90.70;;;;;;4938393;29;20048;-77
2022/03/09 06:46:44;;;;;;;17.03;8.93;;;-1.00;90.60;;;;;;4938062;29;20059;-74
2022/03/09 06:49:12;;;;;;;15.83;9.07;;;-1.00;90.50;;;;;;4938097;29;20146;-75
2022/03/09 06:51:39;;;;;;;18.70;9.10;;;-0.90;90.50;;;;;;4938802;29;20044;-75
2022/03/09 06:54:06;;;;;;;18.02;9.40;;;-0.90;90.30;;;;;;4939902;29;20052;-76
2022/03/09 06:56:33;;;;;;;18.67;10.20;;;-0.80;90.40;;;;;;4939524;29;20055;-74
2022/03/09 06:59:00;;;;;;;20.25;9.50;;;-0.80;90.40;;;;;;4938912;29;20051;-75
2022/03/09 07:01:27;;;;;;;17.27;9.27;;;-0.80;90.40;;;;;;4938529;29;20050;-76
2022/03/09 07:03:54;;;;;;;16.33;8.77;;;-0.70;90.30;;;;;;4937241;29;20059;-74
2022/03/09 07:06:23;;;;;;;16.02;8.82;;;-0.70;90.10;;;;;;4938840;29;20054;-75
2022/03/09 07:08:50;;;;;;;17.20;9.57;;;-0.70;90.00;;;;;;4939024;29;20135;-75
2022/03/09 07:11:17;;;;;;;18.35;9.40;;;-0.70;90.10;;;;;;4938349;29;20393;-75
2022/03/09 07:13:44;;;;;;;20.02;10.07;;;-0.70;90.50;;;;;;4939587;29;20062;-76
2022/03/09 07:16:11;;;;;;;20.85;9.93;;;-0.70;90.60;;;;;;4940016;29;20043;-75
2022/03/09 07:18:38;;;;;;;17.95;9.23;;;-0.70;90.70;;;;;;4940222;29;20142;-75
2022/03/09 07:21:05;;;;;;;18.30;8.80;;;-0.60;90.70;;;;;;4938795;29;20047;-77
2022/03/09 07:23:33;;;;;;;17.40;9.33;;;-0.60;90.70;;;;;;4939292;29;20055;-78
2022/03/09 07:26:02;;;;;;;17.33;9.33;;;-0.50;90.60;;;;;;4939069;29;20048;-75
2022/03/09 07:28:29;;;;;;;18.38;9.48;;;-0.40;90.50;;;;;;4938879;29;20047;-75
2022/03/09 07:30:56;;;;;;;17.38;9.85;;;-0.30;90.40;;;;;;4939204;29;20048;-76
2022/03/09 07:33:23;;;;;;;20.85;10.25;;;-0.30;90.50;;;;;;4938687;29;20072;-77
2022/03/09 07:35:50;;;;;;;18.15;9.85;;;-0.20;90.10;;;;;;4937998;29;20079;-74
2022/03/09 07:38:18;;;;;;;17.92;10.02;;;-0.10;90.00;;;;;;4938052;29;20105;-77
2022/03/09 07:40:46;;;;;;;20.23;10.40;;;-0.10;90.00;;;;;;4937496;29;20436;-75
2022/03/09 07:43:13;;;;;;;19.63;9.80;;;0.00;89.20;;;;;;4937875;29;20142;-75
2022/03/09 07:45:40;;;;;;;21.73;9.88;;;0.00;89.00;;;;;;4939103;29;20051;-74
2022/03/09 07:48:09;;;;;;;20.05;10.48;;;0.00;88.70;;;;;;4938924;29;20405;-75
2022/03/09 07:50:36;;;;;;;20.23;11.10;;;0.10;89.00;;;;;;4937387;29;20052;-75
2022/03/09 07:53:04;;;;;;;22.02;11.77;;;0.10;89.30;;;;;;4937928;29;20118;-74
2022/03/09 07:55:31;;;;;;;22.08;12.60;;;0.00;89.20;;;;;;4937125;29;20050;-76
2022/03/09 07:58:00;;;;;;;22.52;11.77;;;0.00;88.60;;;;;;4937085;29;20458;-75
2022/03/09 08:00:27;;;;;;;21.40;11.90;;;-0.10;87.80;;;;;;4938382;29;20074;-75
2022/03/09 08:02:54;;;;;;;22.92;11.35;;;-0.10;88.10;;;;;;4954677;29;20048;-75
2022/03/09 08:05:22;;;;;;;20.90;11.35;;;-0.10;88.10;;;;;;4955865;29;20134;-74
2022/03/09 08:07:49;;;;;;;21.00;11.70;;;-0.10;89.30;;;;;;4955207;29;20457;-75
2022/03/09 08:10:16;;;;;;;23.45;11.95;;;-0.10;89.30;;;;;;4955818;28;20477;-78
2022/03/09 08:12:43;;;;;;;21.42;11.75;;;0.00;89.70;;;;;;4959045;29;20057;-75
2022/03/09 08:15:12;;;;;;;23.52;11.50;;;0.00;89.60;;;;;;4959254;29;20043;-75
2022/03/09 08:17:39;;;;;;;21.77;11.35;;;0.10;89.80;;;;;;4959105;29;20053;-75
2022/03/09 08:20:08;;;;;;;18.63;10.70;;;0.20;89.70;;;;;;4959451;29;20050;-74
2022/03/09 08:22:35;;;;;;;19.10;11.20;;;0.30;89.80;;;;;;4959159;29;20051;-75
2022/03/09 08:25:03;;;;;;;21.73;10.88;;;0.40;89.60;;;;;;4959069;29;20113;-75
2022/03/09 08:27:30;;;;;;;19.70;10.57;;;0.50;89.20;;;;;;4958424;29;20047;-76
2022/03/09 08:29:57;;;;;;;18.17;10.23;;;0.60;88.70;;;;;;4957835;29;20050;-75
2022/03/09 08:32:25;;;;;;;17.85;9.82;;;0.70;88.00;;;;;;4958140;29;20394;-74
2022/03/09 08:34:54;;;;;;;17.60;9.50;;;0.90;87.30;;;;;;4958436;29;20075;-75
2022/03/09 08:37:21;;;;;;;17.50;9.60;;;1.00;86.40;;;;;;4957953;29;20138;-77
2022/03/09 08:39:48;;;;;;;17.90;9.50;;;1.10;85.60;;;;;;4958064;29;20134;-79
2022/03/09 08:42:15;;;;;;;19.02;10.20;;;1.20;84.70;;;;;;4958127;29;20054;-81
2022/03/09 08:44:42;;;;;;;19.02;10.68;;;1.30;83.60;;;;;;4958218;29;20051;-78
2022/03/09 08:47:10;;;;;;;20.17;10.48;;;1.40;82.70;;;;;;4958199;29;20043;-77
2022/03/09 08:49:39;;;;;;;19.55;11.00;;;1.50;82.70;;;;;;4958078;28;20058;-77
2022/03/09 08:52:07;;;;;;;18.35;10.20;;;1.50;82.50;;;;;;4958184;29;20043;-79
2022/03/09 08:54:34;;;;;;;17.08;9.60;;;1.50;82.70;;;;;;4961189;29;20047;-78
2022/03/09 08:57:02;;;;;;;17.90;9.93;;;1.60;83.20;;;;;;4958198;29;20074;-77
2022/03/09 08:59:29;;;;;;;17.63;9.55;;;1.70;83.30;;;;;;4957367;29;20047;-77
2022/03/09 09:01:56;;;;;;;18.17;10.50;;;1.80;83.50;;;;;;4956999;29;20051;-79
2022/03/09 09:04:23;;;;;;;18.65;9.80;;;1.90;82.90;;;;;;4956712;29;20055;-76
2022/03/09 09:06:51;;;;;;;17.50;10.38;;;2.00;82.20;;;;;;4952676;29;20065;-77
2022/03/09 09:09:20;;;;;;;18.52;10.35;;;2.10;82.10;;;;;;4954451;29;20058;-77
2022/03/09 09:11:47;;;;;;;20.30;11.02;;;2.20;82.00;;;;;;4954322;29;20106;-77
2022/03/09 09:14:14;;;;;;;18.45;10.68;;;2.30;81.70;;;;;;4954141;29;20461;-78
2022/03/09 09:16:43;;;;;;;17.83;10.18;;;2.40;80.90;;;;;;4953893;29;20535;-79
2022/03/09 09:19:10;;;;;;;19.45;10.38;;;2.50;80.80;;;;;;4953463;29;20130;-79
2022/03/09 09:21:38;;;;;;;18.25;10.48;;;2.70;80.10;;;;;;4941162;29;20139;-79
2022/03/09 09:24:07;;;;;;;16.08;9.63;;;2.70;79.60;;;;;;4932683;29;20063;-78
2022/03/09 09:26:34;;;;;;;18.58;10.27;;;2.90;79.60;;;;;;4934876;29;20058;-80
2022/03/09 09:29:01;;;;;;;16.38;10.00;;;3.00;79.20;;;;;;4934711;29;20048;-79
2022/03/09 09:31:28;;;;;;;18.73;10.23;;;3.10;78.60;;;;;;4934836;29;20416;-78
2022/03/09 09:33:55;;;;;;;21.70;11.20;;;3.20;77.40;;;;;;4937887;29;20418;-78
2022/03/09 09:36:22;;;;;;;16.70;9.88;;;3.30;76.40;;;;;;4953629;29;20420;-77
2022/03/09 09:38:50;;;;;;;16.73;9.68;;;3.50;76.00;;;;;;4953755;29;20051;-78
2022/03/09 09:41:24;;;;;;;17.70;10.68;;;3.60;74.80;;;;;;4952981;29;20051;-77
2022/03/09 09:43:52;;;;;;;16.98;9.43;;;3.70;74.00;;;;;;4946592;29;20055;-76
2022/03/09 09:46:19;;;;;;;17.70;10.75;;;3.80;74.00;;;;;;4953735;29;20137;-78
2022/03/09 09:48:46;;;;;;;17.58;10.18;;;3.90;73.60;;;;;;4953575;28;20063;-78
2022/03/09 09:51:14;;;;;;;17.15;10.23;;;4.00;73.20;;;;;;4953475;29;20043;-74
2022/03/09 09:53:43;;;;;;;18.08;10.85;;;4.10;72.40;;;;;;4953335;29;20051;-73
2022/03/09 09:56:10;;;;;;;17.77;10.07;;;4.30;71.90;;;;;;4954015;29;20485;-74
2022/03/09 09:58:41;;;;;;;39.13;20.30;;;4.40;70.60;;;;;;4953068;29;20420;-74
2022/03/09 10:01:08;;;;;;;21.77;13.07;;;4.50;69.90;;;;;;4953743;29;20057;-74
2022/03/09 10:03:36;;;;;;;19.90;10.73;;;4.50;69.50;;;;;;4953085;29;20079;-75
2022/03/09 10:06:04;;;;;;;19.52;10.63;;;4.70;69.20;;;;;;4953028;29;20051;-76
2022/03/09 10:08:31;;;;;;;16.63;9.75;;;4.70;68.80;;;;;;4953317;29;20055;-75
2022/03/09 10:11:01;;;;;;;16.50;10.10;;;4.80;68.60;;;;;;4952629;29;20134;-75
2022/03/09 10:13:31;;;;;;;16.13;9.77;;;4.90;68.20;;;;;;4952793;29;20086;-74
2022/03/09 10:16:15;;;;;;;17.23;10.00;;;5.00;67.70;;;;;;4953049;29;20077;-75
2022/03/09 10:18:48;;;;;;;;;;;5.10;67.30;;;;;;4953237;29;20058;-75
2022/03/09 10:21:19;;;;;;;15.55;9.45;;;5.20;66.50;;;;;;4952929;29;19933;-75
2022/03/09 10:24:03;;;;;;;19.67;10.15;;;5.30;66.00;;;;;;4950956;29;20051;-77
2022/03/09 10:26:47;;;;;;;15.10;9.52;;;5.40;65.50;;;;;;4953192;29;20360;-74
2022/03/09 10:29:16;;;;;;;18.80;10.50;;;5.50;65.00;;;;;;4952647;29;20053;-76
2022/03/09 10:31:48;;;;;;;14.63;9.00;;;5.50;64.40;;;;;;4952793;29;20138;-75
2022/03/09 10:34:19;;;;;;;15.25;9.77;;;5.60;64.30;;;;;;4951684;28;20061;-75
2022/03/09 10:36:58;;;;;;;15.98;9.73;;;5.70;64.00;;;;;;4952607;29;20145;-75
2022/03/09 10:39:28;;;;;;;17.13;10.10;;;5.80;64.10;;;;;;4952604;29;20244;-75
2022/03/09 10:41:58;;;;;;;15.52;9.43;;;5.90;63.50;;;;;;4950138;29;20051;-76
2022/03/09 10:44:44;;;;;;;16.88;9.27;;;6.00;63.30;;;;;;4951235;29;20056;-74
2022/03/09 10:47:29;;;;;;;15.18;8.68;;;6.10;62.60;;;;;;4951581;29;20051;-74
2022/03/09 10:50:08;;;;;;;;;;;6.20;61.90;;;;;;4951963;29;20059;-75
2022/03/09 10:52:47;;;;;;;15.30;9.25;;;6.20;60.90;;;;;;4951924;29;19936;-76
2022/03/09 10:55:31;;;;;;;14.88;9.13;;;6.40;59.80;;;;;;4952173;29;20052;-74
2022/03/09 10:58:11;;;;;;;17.17;10.38;;;6.50;59.10;;;;;;4950256;29;20051;-76
2022/03/09 11:00:42;;;;;;;17.55;10.02;;;6.60;58.30;;;;;;4952037;29;20058;-74
2022/03/09 11:03:13;;;;;;;18.02;9.98;;;6.60;58.00;;;;;;4951814;29;20126;-74
2022/03/09 11:05:51;;;;;;;15.27;9.10;;;6.70;57.70;;;;;;4951040;29;20055;-73
2022/03/09 11:08:20;;;;;;;17.77;9.77;;;6.80;57.60;;;;;;4939636;29;20497;-75
2022/03/09 11:10:48;;;;;;;17.40;9.85;;;6.90;56.50;;;;;;4932547;29;20063;-74
2022/03/09 11:13:17;;;;;;;17.13;9.40;;;6.90;55.70;;;;;;4951622;29;20051;-75
2022/03/09 11:15:47;;;;;;;16.38;9.70;;;7.10;55.60;;;;;;4951217;29;20658;-75
2022/03/09 11:18:19;;;;;;;20.08;11.60;;;7.10;55.20;;;;;;4951906;29;20162;-75
2022/03/09 11:20:46;;;;;;;19.55;10.95;;;7.20;54.20;;;;;;4952442;29;20086;-75
2022/03/09 11:23:15;;;;;;;18.65;10.95;;;7.30;54.00;;;;;;4949855;29;20051;-74
2022/03/09 11:25:49;;;;;;;18.38;10.23;;;7.30;53.50;;;;;;4952120;29;20114;-75
2022/03/09 11:28:26;;;;;;;18.00;10.50;;;7.40;53.30;;;;;;4951730;29;20047;-74
2022/03/09 11:30:58;;;;;;;16.08;9.90;;;7.50;52.50;;;;;;4951512;29;20055;-75
2022/03/09 11:33:43;;;;;;;15.98;9.57;;;7.50;52.70;;;;;;4951895;29;20059;-74
2022/03/09 11:36:37;;;;;;;16.77;9.55;;;7.60;52.30;;;;;;4951876;29;20077;-75
2022/03/09 11:39:25;;;;;;;18.42;9.40;;;7.80;51.50;;;;;;4951669;29;20506;-77
2022/03/09 11:42:31;;;;;;;18.17;10.27;;;7.90;50.90;;;;;;4951347;29;20520;-74
2022/03/09 11:45:30;;;;;;;16.27;9.73;;;8.00;50.70;;;;;;4949902;28;20052;-73
2022/03/09 11:48:02;;;;;;;16.38;10.20;;;8.10;50.00;;;;;;4950592;29;20105;-77
2022/03/09 11:50:34;;;;;;;15.75;9.30;;;8.20;49.40;;;;;;4944709;29;20220;-75
2022/03/09 11:53:04;;;;;;;17.38;9.93;;;8.30;48.80;;;;;;4935973;29;20764;-75
2022/03/09 11:55:33;;;;;;;16.38;10.23;;;8.40;47.70;;;;;;4936260;29;20135;-76
2022/03/09 11:58:12;;;;;;;15.80;9.30;;;8.40;47.20;;;;;;4936331;29;20553;-75
2022/03/09 12:00:41;;;;;;;17.25;10.70;;;8.60;47.00;;;;;;4941882;29;20428;-76
2022/03/09 12:03:08;;;;;;;15.57;9.48;;;8.70;46.60;;;;;;4955197;29;20058;-75
2022/03/09 12:05:43;;;;;;;15.77;9.68;;;8.80;46.60;;;;;;4955022;29;20607;-73
2022/03/09 12:08:12;;;;;;;19.55;10.80;;;9.00;45.90;;;;;;4955473;29;20119;-73
2022/03/09 12:10:52;;;;;;;17.77;10.20;;;9.10;45.90;;;;;;4955692;29;20052;-76
2022/03/09 12:13:33;;;;;;;17.83;10.30;;;9.20;45.10;;;;;;4955454;29;20150;-76
2022/03/09 12:16:15;;;;;;;19.70;10.93;;;9.40;44.80;;;;;;4949499;29;20079;-77
2022/03/09 12:18:52;;;;;;;14.15;9.27;;;9.50;44.30;;;;;;4955150;29;20079;-76
2022/03/09 12:22:04;;;;;;;15.85;9.32;;;9.60;44.10;;;;;;4955386;29;20130;-73
2022/03/09 12:24:39;;;;;;;16.33;10.15;;;9.80;44.20;;;;;;4952635;29;20492;-76
2022/03/09 12:27:27;;;;;;;16.08;10.43;;;10.00;43.50;;;;;;4936325;29;20044;-76
2022/03/09 12:29:55;;;;;;;15.52;9.93;;;10.30;43.50;;;;;;4935717;29;20079;-74
2022/03/09 12:32:23;;;;;;;17.30;10.50;;;10.50;43.00;;;;;;4935667;29;20055;-76
2022/03/09 12:34:52;;;;;;;19.08;11.40;;;10.70;42.90;;;;;;4935761;29;20146;-78
2022/03/09 12:37:25;;;;;;;17.02;11.25;;;10.90;42.20;;;;;;4935657;29;20048;-75
2022/03/09 12:39:57;;;;;;;15.70;10.80;;;11.10;41.60;;;;;;4935849;29;20047;-76
2022/03/09 12:42:24;;;;;;;18.10;11.50;;;11.30;41.20;;;;;;4935655;29;20051;-76
2022/03/09 12:44:53;;;;;;;17.15;11.00;;;11.40;40.50;;;;;;4936027;29;20151;-75
2022/03/09 12:47:20;;;;;;;18.35;11.55;;;11.60;40.10;;;;;;4935841;29;20118;-74
2022/03/09 12:49:52;;;;;;;17.98;11.20;;;11.70;40.00;;;;;;4941098;29;20063;-74
2022/03/09 12:52:22;;;;;;;17.15;11.20;;;11.90;40.40;;;;;;4955101;29;20089;-74
2022/03/09 12:54:51;;;;;;;19.52;12.40;;;12.00;39.50;;;;;;4954433;29;20047;-76
2022/03/09 12:57:23;;;;;;;17.15;11.23;;;12.10;38.60;;;;;;4954237;28;20501;-75
2022/03/09 13:00:00;;;;;;;17.35;10.77;;;12.20;39.20;;;;;;4954727;29;20066;-77
2022/03/09 13:02:42;;;;;;;16.67;10.88;;;12.40;38.10;;;;;;4954552;29;20055;-77
2022/03/09 13:05:13;;;;;;;20.00;12.40;;;12.50;37.80;;;;;;4953319;29;20489;-76
2022/03/09 13:07:55;;;;;;;17.75;11.02;;;12.60;37.00;;;;;;4953824;29;20056;-76
2022/03/09 13:10:23;;;;;;;20.88;11.85;;;12.70;37.30;;;;;;4954337;29;20500;-76
2022/03/09 13:12:53;;;;;;;20.23;12.40;;;12.90;37.00;;;;;;4954132;29;20061;-77
2022/03/09 13:15:22;;;;;;;17.95;11.77;;;13.00;36.30;;;;;;4954027;29;20452;-76
2022/03/09 13:17:51;;;;;;;18.17;11.95;;;13.10;36.40;;;;;;4954141;29;20135;-77
2022/03/09 13:20:20;;;;;;;17.63;12.00;;;13.10;46.70;;;;;;4953985;29;20055;-77
2022/03/09 13:22:49;;;;;;;17.73;11.48;;;;;;;;;;4952380;29;20130;-76
2022/03/09 13:25:17;;;;;;;18.83;12.20;;;13.70;58.80;;;;;;4954111;29;20413;-74
2022/03/09 13:27:45;;;;;;;17.77;11.77;;;13.90;58.60;;;;;;4953994;29;20055;-77
2022/03/09 13:30:15;;;;;;;16.13;10.80;;;14.00;60.50;;;;;;4953717;29;20134;-76
2022/03/09 13:32:43;;;;;;;18.00;11.52;;;14.00;35.40;;;;;;4954023;29;20051;-76
2022/03/09 13:35:17;;;;;;;18.77;12.18;;;14.30;35.70;;;;;;4953832;29;20054;-75
2022/03/09 13:37:44;;;;;;;18.55;11.75;;;14.50;56.00;;;;;;4953969;29;20141;-77
2022/03/09 13:40:13;;;;;;;16.58;11.00;;;14.70;50.00;;;;;;4954040;29;20047;-74
2022/03/09 13:42:43;;;;;;;16.30;11.02;;;15.10;34.50;;;;;;4953305;29;20142;-77
2022/03/09 13:45:15;;;;;;;17.25;11.73;;;15.40;50.50;;;;;;4953718;29;20497;-77
2022/03/09 13:47:54;;;;;;;15.70;11.18;;;15.60;34.20;;;;;;4953779;29;20134;-78
2022/03/09 13:50:24;;;;;;;16.55;11.35;;;15.80;33.10;;;;;;4953744;29;20064;-74
2022/03/09 13:52:55;;;;;;;15.48;11.18;;;16.20;33.90;;;;;;4953538;29;20058;-77
2022/03/09 13:55:27;;;;;;;17.33;11.68;;;;;;;;;;4953765;29;20066;-77
2022/03/09 13:58:06;;;;;;;16.05;10.82;;;16.90;38.80;;;;;;4953617;29;20051;-78
2022/03/09 14:00:43;;;;;;;15.38;10.70;;;;;;;;;;4953508;29;20055;-76
2022/03/09 14:03:15;;;;;;;16.38;11.45;;;;;;;;;;4953885;29;20079;-79
2022/03/09 14:05:44;;;;;;;14.35;10.38;;;;;;;;;;4953121;29;20134;-78
2022/03/09 14:08:23;;;;;;;15.45;10.73;;;;;;;;;;4952769;28;20061;-79
2022/03/09 14:11:04;;;;;;;14.98;11.05;;;;;;;;;;4953382;29;20050;-77
2022/03/09 14:13:33;;;;;;;18.02;11.68;;;19.60;29.70;;;;;;4956156;29;20117;-77
2022/03/09 14:16:01;;;;;;;14.55;10.73;;;;;;;;;;4957965;29;20149;-77
2022/03/09 14:18:28;;;;;;;14.18;11.10;;;21.20;28.70;;;;;;4953208;29;20252;-76
2022/03/09 14:20:55;;;;;;;15.20;11.50;;;24.70;26.70;;;;;;4953423;29;20489;-77
2022/03/09 14:23:22;;;;;;;13.30;10.68;;;28.10;26.00;;;;;;4951740;29;20394;-80
2022/03/09 14:25:53;;;;;;;12.13;9.98;;;;;;;;;;4957995;29;20489;-77
2022/03/09 14:28:20;;;;;;;12.63;10.25;;;;;;;;;;4954884;29;20097;-77
2022/03/09 14:30:48;;;;;;;12.55;9.85;;;;;;;;;;4954765;29;20051;-78
2022/03/09 14:33:15;;;;;;;13.07;9.75;;;;;;;;;;4958483;29;20201;-76
2022/03/09 14:35:42;;;;;;;11.95;10.10;;;37.80;22.80;;;;;;4953514;29;20075;-76
2022/03/09 14:38:09;;;;;;;13.02;10.60;;;39.40;22.20;;;;;;4954880;29;20073;-77
2022/03/09 14:40:36;;;;;;;12.32;9.77;;;39.90;22.20;;;;;;4955146;29;20054;-76
2022/03/09 14:43:05;;;;;;;11.25;9.50;;;;;;;;;;4955005;29;20134;-76
2022/03/09 14:45:33;;;;;;;11.75;10.20;;;;;;;;;;4954778;29;20058;-80
2022/03/09 14:48:02;;;;;;;12.88;9.63;;;;;;;;;;4954205;29;20061;-77
2022/03/09 14:50:30;;;;;;;13.38;9.77;;;;;;;;;;4952639;29;20488;-76
2022/03/09 14:52:57;;;;;;;10.68;9.52;;;;;;;;;;4952402;29;20058;-77
2022/03/09 14:55:25;;;;;;;11.57;9.80;;;;;;;;;;4935603;29;20098;-78
2022/03/09 14:57:52;;;;;;;11.27;9.38;;;;;;;;;;4952681;29;20584;-79
2022/03/09 15:00:22;;;;;;;11.48;9.57;;;;;;;;;;4952620;29;20059;-77
2022/03/09 15:02:50;;;;;;;11.88;9.88;;;;;;;;;;4952606;29;20043;-79
2022/03/09 15:05:17;;;;;;;12.75;10.40;;;;;;;;;;4952269;29;20138;-79
2022/03/09 15:07:45;;;;;;;11.30;9.75;;;;;;;;;;4952847;29;20139;-77
2022/03/09 15:10:12;;;;;;;14.13;11.85;;;;;;;;;;4953424;29;20126;-78
2022/03/09 15:12:39;;;;;;;11.90;9.95;;;;;;;;;;4962709;29;20086;-74
2022/03/09 15:15:09;;;;;;;12.85;10.82;;;;;;;;;;4953114;29;20051;-78
2022/03/09 15:17:37;;;;;;;12.20;9.95;;;;;;;;;;4951800;29;20075;-78
2022/03/09 15:20:06;;;;;;;12.98;10.57;;;;;;;;;;4953762;28;20051;-78
2022/03/09 15:22:33;;;;;;;12.00;10.20;;;;;;;;;;4956315;29;20198;-78
2022/03/09 15:25:00;;;;;;;13.75;11.00;;;;;;;;;;4954336;29;20049;-77
2022/03/09 15:27:28;;;;;;;12.32;10.65;;;;;;;;;;4956416;29;20143;-77
2022/03/09 15:29:55;;;;;;;12.65;11.27;;;;;;;;;;4955728;29;20409;-77
2022/03/09 15:32:23;;;;;;;13.82;11.15;;;;;;;;;;4956603;29;20051;-78
2022/03/09 15:34:52;;;;;;;12.20;10.77;;;;;;;;;;4956187;29;20058;-78
2022/03/09 15:37:20;;;;;;;14.98;11.27;;;;;;;;;;4956460;29;20177;-79
2022/03/09 15:39:47;;;;;;;13.07;11.07;;;;;;;;;;4956552;29;20043;-78
2022/03/09 15:42:15;;;;;;;14.40;11.35;;;;;;;;;;4955947;29;20557;-78
2022/03/09 15:44:42;;;;;;;15.70;11.85;;;;;;;;;;4956404;29;20070;-79
2022/03/09 15:47:09;;;;;;;16.75;11.73;;;;;;;;;;4955211;29;20141;-78
2022/03/09 15:49:37;;;;;;;13.60;11.70;;;;;;;;;;4955842;28;20487;-77
2022/03/09 15:52:09;;;;;;;14.20;11.60;;;;;;;;;;4955653;29;20110;-78
2022/03/09 15:54:37;;;;;;;14.52;12.38;;;;;;;;;;4954881;29;20083;-76
2022/03/09 15:57:06;;;;;;;14.82;11.82;;;;;;;;;;4954916;29;20101;-79
2022/03/09 15:59:33;;;;;;;14.75;11.85;;;;;;;;;;4955374;29;20475;-78
2022/03/09 16:02:00;;;;;;;14.45;12.27;;;;;;;;;;4955574;29;20047;-78
2022/03/09 16:04:28;;;;;;;14.95;12.05;;;;;;;;;;4955478;29;20051;-78
2022/03/09 16:06:55;;;;;;;14.75;12.50;;;;;;;;;;4955122;29;20142;-79
2022/03/09 16:09:24;;;;;;;17.27;13.43;;;;;;;;;;4955391;29;20083;-78
2022/03/09 16:11:51;;;;;;;15.80;12.90;;;37.80;21.70;;;;;;4955637;29;20446;-77
2022/03/09 16:14:18;;;;;;;16.00;13.02;;;37.50;22.10;;;;;;4954963;29;20489;-76
2022/03/09 16:16:45;;;;;;;16.15;13.45;;;37.30;22.30;;;;;;4964292;29;20142;-78
2022/03/09 16:19:13;;;;;;;15.85;13.18;;;36.80;22.20;;;;;;4970034;29;20106;-78
2022/03/09 16:21:44;;;;;;;16.25;13.25;;;36.40;22.40;;;;;;4955596;29;20523;-76
2022/03/09 16:24:11;;;;;;;17.13;14.30;;;35.80;22.50;;;;;;4952688;29;20050;-79
2022/03/09 16:26:40;;;;;;;19.02;14.25;;;35.20;22.60;;;;;;4954342;29;20059;-75
2022/03/09 16:29:07;;;;;;;18.45;13.82;;;34.70;22.80;;;;;;4954951;29;20047;-76
2022/03/09 16:31:34;;;;;;;17.13;14.43;;;34.20;22.80;;;;;;4953872;28;20174;-78
2022/03/09 16:34:01;;;;;;;18.88;14.00;;;33.50;22.90;;;;;;4954843;29;20054;-76
2022/03/09 16:36:28;;;;;;;18.02;14.65;;;32.90;23.00;;;;;;4954437;29;20097;-76
2022/03/09 16:38:55;;;;;;;17.90;14.10;;;32.40;23.10;;;;;;4952812;29;20061;-80
2022/03/09 16:41:22;;;;;;;17.70;14.18;;;31.60;23.20;;;;;;4954839;29;20043;-79
2022/03/09 16:43:52;;;;;;;18.90;14.50;;;30.80;23.40;;;;;;4955032;29;20051;-79
2022/03/09 16:46:21;;;;;;;17.42;14.40;;;30.10;23.50;;;;;;4954909;29;20055;-77
2022/03/09 16:48:50;;;;;;;19.25;14.90;;;29.40;23.70;;;;;;4954283;29;20047;-79
2022/03/09 16:51:20;;;;;;;18.98;14.65;;;28.80;23.90;;;;;;4947680;29;20508;-77
2022/03/09 16:53:47;;;;;;;19.73;15.27;;;28.20;24.10;;;;;;4954314;29;20057;-78
2022/03/09 16:56:17;;;;;;;18.98;14.38;;;27.00;24.10;;;;;;4954826;29;20061;-78
2022/03/09 16:58:45;;;;;;;20.08;14.40;;;26.90;24.40;;;;;;4954285;29;20082;-77
2022/03/09 17:01:13;;;;;;;22.20;16.05;;;25.30;50.10;;;;;;4940862;29;20596;-80
2022/03/09 17:03:40;;;;;;;21.90;15.30;;;25.40;48.80;;;;;;4936435;29;20059;-79
2022/03/09 17:06:07;;;;;;;20.08;15.00;;;24.70;25.30;;;;;;4954694;29;20051;-79
2022/03/09 17:08:34;;;;;;;20.65;14.88;;;24.00;25.70;;;;;;4954738;29;20347;-78
2022/03/09 17:11:01;;;;;;;21.45;15.18;;;23.40;26.70;;;;;;4954300;29;20055;-78
2022/03/09 17:13:29;;;;;;;21.52;14.90;;;22.70;26.50;;;;;;4954817;29;20066;-78
2022/03/09 17:15:56;;;;;;;20.83;14.43;;;22.10;26.90;;;;;;4955083;29;20142;-77
2022/03/09 17:18:25;;;;;;;22.45;14.90;;;21.40;27.30;;;;;;4954715;29;20055;-78
2022/03/09 17:20:52;;;;;;;22.48;14.70;;;20.70;27.70;;;;;;4955458;29;20056;-77
2022/03/09 17:23:19;;;;;;;20.80;14.80;;;20.10;28.70;;;;;;4952367;29;20135;-77
2022/03/09 17:25:46;;;;;;;22.48;15.25;;;19.40;28.50;;;;;;4953790;29;20127;-78
2022/03/09 17:28:13;;;;;;;23.50;14.95;;;18.90;28.90;;;;;;4953506;29;20660;-76
2022/03/09 17:30:40;;;;;;;22.90;15.38;;;18.30;29.20;;;;;;4953643;29;20142;-77
2022/03/09 17:33:07;;;;;;;21.52;15.05;;;17.80;29.50;;;;;;4954632;29;20051;-75
2022/03/09 17:35:36;;;;;;;23.05;15.10;;;17.40;30.00;;;;;;4941821;29;20229;-78
2022/03/09 17:38:03;;;;;;;22.40;14.98;;;16.90;30.50;;;;;;4949830;29;20057;-78
2022/03/09 17:40:31;;;;;;;21.45;14.15;;;16.50;31.10;;;;;;4944155;29;20082;-78
2022/03/09 17:42:58;;;;;;;22.13;14.40;;;16.10;31.60;;;;;;4950913;28;20602;-78
2022/03/09 17:45:25;;;;;;;22.60;14.55;;;15.70;32.10;;;;;;4949680;29;20050;-79
2022/03/09 17:47:52;;;;;;;24.33;16.02;;;15.30;32.30;;;;;;4934619;29;20055;-77